Aérodrome :
LOGIN :

S'inscrire | Disclaimer

   EN    FR    IT 

 










Légende :    VFR   VFR Marginal   IFR   IFR Intensif   IFR Très Intensif
Visi : 
Plafond : 
>= 8 km
>= 3000ft
5 à 8 km
1000 à 3000 ft
1500m à 5 km
500 à 1000 ft
800 à 1500m
200 à 500 ft
< 800m
< 200 ft
Symboles :   Orages  Brouillard  Fortes neiges  Fortes précipitations  Vent > 20 kt
SIGMETs :   Divers  Orages  Givrage  Turbulence  Onde Orograph.  Cendres Volcan.







- Altitude de l'aérodrome : 1475 ft


LSZC - Buochs Stans

DERNIER METAR :
  • 131620Z AUTO VRB01KT 9999 SCT060 02/M03 Q1011

METARs EXPIRÉS :
  • 131550Z VRB02KT 9999 BKN090 OVC110 02/M02 Q1011
  • 131520Z AUTO VRB02KT 9999 BKN100 BKN120 02/M03 Q1011
  • 131450Z VRB01KT 9999 OVC130 03/M04 Q1012
  • 131420Z VRB01KT 9999 OVC120 03/M05 Q1011
  • 131350Z VRB02KT 9999 OVC140 03/M03 Q1011

TAF TAF LSZC
Valide du 13 à 15h jusqu'au 14 à 00h UTC


131425Z 1315/1324 VRB05KT 9999 BKN090
BECMG 1316/1319 24011G26KT 4000 RA BKN040
PROB40
TEMPO 1317/1320 3000 -SN BKN014
Pas de NOTAMs connus pour ce terrain.



MET'MAP, la Météo Aéronautique d'un coup d'oeil ! - Copyright ORBIFLY Décembre 2007 - Disclaimer

ORBIFLY MET'MAP TEAM :

Programmation & Développement : Alexandra Zaïnal
Conception & Développement : Baudouin d'Aumeries
Co-Programmation & Développement : Marc-Olivier Méhu
Soutien technique & logistique : Manuel Goepfert

Contact : metmap@orbifly.com




SOURCES & CREDITS :

   NOAA